Time;durP1;ratioP1;P1;durP2;ratioP2;P2;SDS_P1;SDS_P2;PMS_P1;PMS_P2;Temp;Humidity;BMP_temperature;BMP_pressure;BME280_temperature;BME280_humidity;BME280_pressure;Samples;Min_cycle;Max_cycle;Signal;HPM_P1;HPM_P2
2021/11/08 00:00:14;;;;;;;8.30;7.43;;;;;;;8.99;84.58;95904.53;5056601;28;20261;-84
2021/11/08 00:02:44;;;;;;;8.10;7.10;;;;;;;8.98;85.45;95892.66;5073078;28;20193;-83
2021/11/08 00:05:12;;;;;;;8.73;7.90;;;;;;;8.98;84.64;95890.88;5076738;28;20205;-84
2021/11/08 00:07:39;;;;;;;8.23;7.23;;;;;;;8.99;84.47;95897.63;5076855;28;20205;-82
2021/11/08 00:10:09;;;;;;;7.90;7.10;;;;;;;8.93;85.19;95897.44;5076686;28;20193;-84
2021/11/08 00:12:36;;;;;;;8.33;7.43;;;;;;;8.94;85.37;95902.44;5076813;28;20220;-82
2021/11/08 00:15:06;;;;;;;7.47;6.67;;;;;;;9.00;84.11;95893.31;5076633;28;20211;-82
2021/11/08 00:17:48;;;;;;;7.63;6.83;;;;;;;9.04;83.99;95889.47;5076371;28;20192;-82
2021/11/08 00:20:22;;;;;;;8.67;7.30;;;;;;;9.07;84.19;95888.31;5076754;28;20200;-83
2021/11/08 00:22:48;;;;;;;7.40;6.70;;;;;;;9.09;83.95;95886.38;5076625;28;20230;-83
2021/11/08 00:25:15;;;;;;;8.23;7.43;;;;;;;9.11;83.83;95889.59;5076682;28;20693;-81
2021/11/08 00:27:41;;;;;;;8.20;7.27;;;;;;;9.10;84.28;95900.84;5076433;28;20596;-82
2021/11/08 00:30:10;;;;;;;8.80;7.90;;;;;;;9.12;83.94;95907.44;5076696;28;20204;-84
2021/11/08 00:32:37;;;;;;;8.27;7.47;;;;;;;9.17;83.40;95909.53;5075616;28;20225;-84
2021/11/08 00:35:05;;;;;;;8.67;7.77;;;;;;;9.15;83.23;95907.13;5076035;28;20254;-85
2021/11/08 00:37:33;;;;;;;8.20;7.40;;;;;;;9.18;83.20;95908.56;5076392;28;20207;-82
2021/11/08 00:39:59;;;;;;;8.10;7.30;;;;;;;9.16;84.19;95910.50;5075796;28;20201;-85
2021/11/08 00:42:29;;;;;;;8.43;7.57;;;;;;;9.14;83.79;95917.53;5074392;28;20842;-83
2021/11/08 00:44:55;;;;;;;9.13;8.03;;;;;;;9.14;83.54;95914.97;5055368;28;20288;-82
2021/11/08 00:47:22;;;;;;;8.40;7.50;;;;;;;9.07;84.75;95917.38;5055033;28;20217;-82
2021/11/08 00:49:49;;;;;;;8.60;7.70;;;;;;;9.10;84.32;95909.34;5060413;28;20223;-84
2021/11/08 00:52:15;;;;;;;8.70;7.40;;;;;;;9.09;84.43;95915.44;5075349;28;20247;-83
2021/11/08 00:54:43;;;;;;;7.87;7.07;;;;;;;9.15;84.38;95922.53;5075656;28;20200;-82
2021/11/08 00:57:11;;;;;;;8.10;7.30;;;;;;;9.13;84.35;95918.50;5074849;28;20204;-84
2021/11/08 00:59:38;;;;;;;8.83;7.93;;;;;;;9.13;84.58;95913.38;5076310;28;20588;-82
2021/11/08 01:02:04;;;;;;;8.20;7.40;;;;;;;9.10;85.04;95923.97;5074883;28;20226;-84
2021/11/08 01:04:31;;;;;;;8.90;7.70;;;;;;;9.04;85.61;95924.63;5075420;28;20234;-84
2021/11/08 01:07:00;;;;;;;8.67;7.67;;;;;;;8.94;86.71;95924.75;5075452;28;20567;-83
2021/11/08 01:09:28;;;;;;;8.87;7.97;;;;;;;8.98;86.38;95920.91;5075131;28;20212;-85
2021/11/08 01:11:56;;;;;;;8.27;7.37;;;;;;;9.02;85.91;95929.91;5075239;28;20256;-84
2021/11/08 01:14:23;;;;;;;8.43;7.60;;;;;;;9.06;85.55;95932.94;5074786;28;20197;-84
2021/11/08 01:16:55;;;;;;;8.30;7.50;;;;;;;9.03;86.32;95928.94;5074592;28;20208;-84
2021/11/08 01:19:22;;;;;;;8.87;7.97;;;;;;;9.05;85.16;95929.56;5074210;28;20227;-84
2021/11/08 01:21:48;;;;;;;8.23;7.40;;;;;;;9.05;86.10;95939.03;5074894;28;20251;-84
2021/11/08 01:24:15;;;;;;;9.43;7.97;;;;;;;9.05;85.26;95936.47;5073738;28;20229;-81
2021/11/08 01:26:42;;;;;;;9.10;7.77;;;;;;;9.07;85.33;95937.13;5074743;28;20207;-83
2021/11/08 01:29:11;;;;;;;8.57;7.70;;;;;;;9.08;85.23;95936.97;5073996;28;20225;-82
2021/11/08 01:31:37;;;;;;;9.30;7.90;;;;;;;9.06;85.47;95925.22;5074239;28;20221;-80
2021/11/08 01:34:04;;;;;;;8.77;7.83;;;;;;;8.96;86.58;95930.53;5074887;28;20200;-82
2021/11/08 01:36:35;;;;;;;7.87;6.97;;;;;;;9.00;86.10;95939.53;5074391;28;20210;-84
2021/11/08 01:39:11;;;;;;;8.30;7.50;;;;;;;9.00;86.03;95944.66;5074455;28;20228;-82
2021/11/08 01:41:38;;;;;;;8.60;7.73;;;;;;;9.02;86.12;95939.38;5073813;28;20215;-81
2021/11/08 01:44:05;;;;;;;8.93;8.03;;;;;;;8.99;86.45;95937.91;5074161;28;20316;-84
2021/11/08 01:46:32;;;;;;;8.10;7.30;;;;;;;8.97;86.83;95943.22;5074253;28;20205;-84
2021/11/08 01:48:59;;;;;;;10.87;8.27;;;;;;;8.95;86.60;95946.91;5074043;28;20225;-82
2021/11/08 01:51:25;;;;;;;8.27;7.37;;;;;;;8.93;86.78;95941.91;5074133;28;20585;-83
2021/11/08 01:53:53;;;;;;;8.37;7.57;;;;;;;8.94;87.58;95947.84;5073710;28;20589;-81
2021/11/08 01:56:22;;;;;;;9.00;8.10;;;;;;;8.96;86.43;95940.78;5073568;28;20686;-84
2021/11/08 01:58:49;;;;;;;10.30;7.63;;;;;;;8.98;86.34;95947.38;5073607;28;20225;-84
2021/11/08 02:01:16;;;;;;;8.87;7.97;;;;;;;9.00;86.57;95947.22;5073540;28;20664;-82
2021/11/08 02:03:44;;;;;;;8.60;7.73;;;;;;;9.03;86.91;95948.69;5073427;28;20684;-82
2021/11/08 02:06:12;;;;;;;8.50;7.70;;;;;;;9.00;86.52;95950.59;5072943;28;20193;-84
2021/11/08 02:08:39;;;;;;;8.40;7.60;;;;;;;8.90;87.97;95947.34;5073133;28;20430;-83
2021/11/08 02:11:07;;;;;;;9.33;8.23;;;;;;;8.90;87.42;95944.78;5073490;28;20196;-84
2021/11/08 02:13:34;;;;;;;8.97;8.07;;;;;;;8.97;87.12;95947.53;5073755;28;20618;-84
2021/11/08 02:16:01;;;;;;;9.33;8.43;;;;;;;9.03;86.97;95948.69;5073634;28;20640;-84
2021/11/08 02:18:27;;;;;;;8.90;8.00;;;;;;;9.01;88.04;95948.84;5072595;28;20256;-83
2021/11/08 02:20:56;;;;;;;8.73;7.83;;;;;;;9.05;86.96;95949.31;5073178;28;20208;-82
2021/11/08 02:23:24;;;;;;;9.03;8.13;;;;;;;9.09;86.45;95963.44;5072821;28;20230;-83
2021/11/08 02:25:54;;;;;;;9.07;8.17;;;;;;;9.11;86.14;95959.75;5073059;28;20300;-82
2021/11/08 02:28:22;;;;;;;8.77;7.80;;;;;;;9.09;86.26;95951.41;5073106;28;20212;-84
2021/11/08 02:30:52;;;;;;;9.07;8.17;;;;;;;9.06;86.33;95954.28;5073105;28;20295;-84
2021/11/08 02:33:19;;;;;;;8.80;7.67;;;;;;;9.05;86.96;95951.88;5072929;28;20316;-83
2021/11/08 02:35:46;;;;;;;10.03;7.70;;;;;;;9.04;86.94;95943.41;5072811;28;20276;-83
2021/11/08 02:38:19;;;;;;;7.80;7.00;;;;;;;9.08;85.58;95949.00;5072870;28;20220;-82
2021/11/08 02:40:46;;;;;;;8.23;7.43;;;;;;;9.09;85.28;95951.41;5073695;28;20300;-82
2021/11/08 02:43:20;;;;;;;9.47;7.80;;;;;;;9.10;85.17;95953.00;5073211;28;20207;-83
2021/11/08 02:45:47;;;;;;;8.00;7.20;;;;;;;9.11;85.62;95954.63;5073434;28;20574;-84
2021/11/08 02:48:14;;;;;;;8.53;7.47;;;;;;;9.12;85.07;95956.22;5073564;28;20235;-83
2021/11/08 02:50:40;;;;;;;8.20;7.40;;;;;;;9.07;85.14;95953.31;5073226;28;20211;-84
2021/11/08 02:53:11;;;;;;;8.43;7.63;;;;;;;8.99;85.38;95964.41;5073212;28;20307;-84
2021/11/08 02:55:40;;;;;;;8.50;7.60;;;;;;;8.97;85.37;95955.25;5073114;28;20636;-84
2021/11/08 02:58:07;;;;;;;8.40;7.60;;;;;;;8.98;85.21;95962.78;5072911;28;20224;-83
2021/11/08 03:00:33;;;;;;;9.47;7.53;;;;;;;8.98;85.70;95964.56;5072938;28;20207;-83
2021/11/08 03:03:00;;;;;;;8.97;7.50;;;;;;;8.99;85.68;95953.31;5072533;28;20201;-82
2021/11/08 03:05:34;;;;;;;8.63;7.73;;;;;;;8.94;86.30;95953.78;5073100;28;20615;-84
2021/11/08 03:08:01;;;;;;;9.83;8.13;;;;;;;8.89;86.73;95950.06;5059392;28;20220;-83
2021/11/08 03:10:32;;;;;;;9.53;8.17;;;;;;;8.93;86.33;95959.88;5064568;28;20690;-84
2021/11/08 03:13:08;;;;;;;9.30;7.17;;;;;;;8.96;85.76;95962.16;5071921;28;20282;-82
2021/11/08 03:15:45;;;;;;;8.40;7.60;;;;;;;8.99;85.74;95954.13;5071711;28;20210;-82
2021/11/08 03:18:16;;;;;;;8.30;7.33;;;;;;;9.03;85.04;95954.63;5071120;28;20298;-81
2021/11/08 03:20:43;;;;;;;10.00;7.40;;;;;;;8.98;85.71;95951.72;5071639;28;20541;-83
2021/11/08 03:23:09;;;;;;;9.90;7.70;;;;;;;8.98;85.61;95952.53;5071007;28;20719;-82
2021/11/08 03:25:43;;;;;;;9.63;7.00;;;;;;;8.99;85.61;95953.31;5072637;28;20237;-84
2021/11/08 03:28:12;;;;;;;8.40;7.50;;;;;;;8.94;86.30;95955.56;5072515;28;20270;-83
2021/11/08 03:30:42;;;;;;;8.03;7.23;;;;;;;8.88;86.11;95956.19;5075514;28;20207;-81
2021/11/08 03:33:11;;;;;;;8.77;7.87;;;;;;;8.91;85.28;95961.81;5076769;28;20243;-83
2021/11/08 03:35:38;;;;;;;8.63;7.53;;;;;;;8.82;86.74;95964.53;5076660;28;20295;-84
2021/11/08 03:38:07;;;;;;;8.40;7.20;;;;;;;8.87;86.58;95968.22;5076355;28;20224;-84
2021/11/08 03:40:36;;;;;;;8.37;7.53;;;;;;;8.92;85.68;95965.97;5076881;28;20287;-84
2021/11/08 03:43:05;;;;;;;8.03;7.13;;;;;;;8.94;85.17;95968.41;5070485;28;20212;-85
2021/11/08 03:45:35;;;;;;;8.23;7.43;;;;;;;8.94;85.34;95970.97;5056091;28;20205;-81
2021/11/08 03:48:03;;;;;;;8.23;7.33;;;;;;;8.92;85.76;95971.13;5056099;28;20397;-83
2021/11/08 03:50:30;;;;;;;9.97;7.90;;;;;;;8.89;87.17;95971.44;5056936;28;20208;-82
2021/11/08 03:52:56;;;;;;;8.93;7.70;;;;;;;8.87;87.67;95970.78;5066684;28;20691;-84
2021/11/08 03:55:23;;;;;;;12.60;7.97;;;;;;;8.89;87.36;95974.00;5076587;28;20201;-85
2021/11/08 03:57:50;;;;;;;8.10;7.30;;;;;;;8.90;86.73;95979.94;5076960;28;20254;-82
2021/11/08 04:00:19;;;;;;;9.57;7.47;;;;;;;8.93;86.29;95974.50;5076063;28;20329;-83
2021/11/08 04:02:48;;;;;;;9.93;7.57;;;;;;;8.96;85.70;95969.84;5076337;28;20250;-84
2021/11/08 04:05:16;;;;;;;8.67;7.87;;;;;;;9.00;85.37;95971.16;5076580;28;20667;-81
2021/11/08 04:07:43;;;;;;;8.30;7.40;;;;;;;9.00;85.12;95975.47;5076252;28;20687;-81
2021/11/08 04:10:13;;;;;;;8.43;7.53;;;;;;;8.93;85.62;95970.16;5076597;28;20204;-83
2021/11/08 04:12:43;;;;;;;9.67;7.03;;;;;;;8.90;85.83;95978.16;5075835;28;20234;-81
2021/11/08 04:15:13;;;;;;;9.43;7.53;;;;;;;8.89;85.94;95984.25;5075838;28;20196;-83
2021/11/08 04:17:42;;;;;;;8.20;7.40;;;;;;;8.89;85.70;95980.88;5076224;28;20229;-83
2021/11/08 04:20:13;;;;;;;8.63;7.63;;;;;;;8.94;85.17;95984.59;5076285;28;20247;-81
2021/11/08 04:22:40;;;;;;;8.73;7.90;;;;;;;8.93;85.54;95977.88;5075596;28;20196;-83
2021/11/08 04:25:08;;;;;;;7.93;7.13;;;;;;;8.95;85.03;95981.09;5076420;28;20204;-82
2021/11/08 04:27:37;;;;;;;11.70;7.77;;;;;;;8.91;85.49;95978.97;5074632;28;20219;-82
2021/11/08 04:30:06;;;;;;;8.70;7.80;;;;;;;8.94;85.10;95981.25;5055453;28;20656;-80
2021/11/08 04:32:38;;;;;;;7.50;6.60;;;;;;;8.88;86.10;95989.56;5055397;28;20734;-81
2021/11/08 04:35:10;;;;;;;8.23;7.03;;;;;;;8.90;85.10;95991.00;5055815;28;20197;-83
2021/11/08 04:37:55;;;;;;;8.40;7.33;;;;;;;8.92;84.90;95983.97;5055781;28;20233;-82
2021/11/08 04:40:26;;;;;;;7.63;6.83;;;;;;;8.92;84.32;95978.00;5054943;28;20214;-82
2021/11/08 04:43:00;;;;;;;8.70;7.20;;;;;;;8.85;85.26;95985.53;5055092;28;20205;-83
2021/11/08 04:45:42;;;;;;;9.37;7.57;;;;;;;8.84;85.21;95985.72;5055328;28;20288;-82
2021/11/08 04:48:22;;;;;;;8.83;7.50;;;;;;;8.88;84.65;95982.66;5073961;28;20231;-83
2021/11/08 04:50:52;;;;;;;8.47;7.67;;;;;;;8.86;84.90;95992.28;5075802;28;20201;-81
2021/11/08 04:53:34;;;;;;;9.03;6.90;;;;;;;8.87;84.54;95988.75;5075070;28;20274;-83
2021/11/08 05:24:09;;;;;;;8.63;7.03;;;;;;;8.85;83.49;96006.06;5032345;28;20240;-84
2021/11/08 05:32:02;;;;;;;8.67;7.23;;;;;;;8.79;83.74;96018.75;5054944;28;20216;-84
2021/11/08 05:34:28;;;;;;;8.83;7.10;;;;;;;8.76;84.20;96022.41;5055008;28;20201;-82
2021/11/08 05:36:55;;;;;;;10.93;7.63;;;;;;;8.74;83.65;96029.47;5054741;28;20206;-84
2021/11/08 05:39:21;;;;;;;10.73;7.73;;;;;;;8.69;84.15;96036.81;5054969;28;20229;-82
2021/11/08 05:41:49;;;;;;;8.87;7.70;;;;;;;8.62;84.39;96028.94;5055081;28;20201;-82
2021/11/08 05:44:16;;;;;;;8.83;7.87;;;;;;;8.63;83.92;96032.31;5054717;28;20205;-81
2021/11/08 05:46:43;;;;;;;9.93;7.40;;;;;;;8.56;84.13;96039.00;5054547;28;20304;-84
2021/11/08 05:49:09;;;;;;;10.13;7.53;;;;;;;8.51;84.18;96039.47;5054353;28;20709;-84
2021/11/08 05:51:36;;;;;;;7.73;6.93;;;;;;;8.47;84.33;96038.16;5054293;28;20209;-82
2021/11/08 05:54:03;;;;;;;8.57;7.27;;;;;;;8.42;84.73;96037.81;5065335;28;20347;-85
2021/11/08 05:56:32;;;;;;;8.13;7.33;;;;;;;8.48;83.83;96044.09;5068873;28;20201;-84
2021/11/08 05:59:27;;;;;;;9.50;7.23;;;;;;;8.49;84.17;96043.13;5071801;28;20270;-83
2021/11/08 06:51:43;;;;;;;10.37;8.97;;;;;;;8.95;80.96;96090.69;5112210;27;20539;-82
2021/11/08 06:54:09;;;;;;;8.53;6.57;;;;;;;9.34;79.12;96091.81;5111711;28;20203;-84
2021/11/08 06:56:39;;;;;;;9.40;7.03;;;;;;;9.72;77.34;96092.22;5112555;28;20227;-85
2021/11/08 06:59:06;;;;;;;9.83;6.83;;;;;;;10.02;75.61;96091.59;5099156;28;20220;-84
2021/11/08 07:01:33;;;;;;;7.33;6.50;;;;;;;10.08;74.62;96092.72;5091924;28;20630;-82
2021/11/08 07:03:59;;;;;;;8.73;6.70;;;;;;;10.12;73.91;96096.59;5090870;28;20229;-85
2021/11/08 07:06:26;;;;;;;7.30;6.30;;;;;;;10.28;73.58;96101.78;5091822;28;20208;-83
2021/11/08 07:08:54;;;;;;;11.27;6.40;;;;;;;10.53;73.40;96092.25;5090576;28;20258;-85
2021/11/08 07:11:20;;;;;;;9.93;6.40;;;;;;;10.68;71.90;96098.34;5090736;28;20226;-82
2021/11/08 07:13:47;;;;;;;6.87;5.80;;;;;;;10.76;71.35;96099.31;5090421;28;20203;-82
2021/11/08 07:16:13;;;;;;;8.03;5.93;;;;;;;10.77;71.16;96101.72;5090749;28;20200;-84
2021/11/08 07:18:40;;;;;;;8.73;6.03;;;;;;;10.71;70.68;96097.22;5090653;28;20273;-84
2021/11/08 07:21:07;;;;;;;7.77;6.07;;;;;;;10.68;71.58;96100.91;5091716;28;20196;-84
2021/11/08 07:23:33;;;;;;;15.83;13.27;;;;;;;10.59;71.77;96095.94;5080744;27;20244;-84
2021/11/08 07:26:01;;;;;;;9.87;8.87;;;;;;;10.53;71.68;96092.25;5071696;28;20197;-84
2021/11/08 07:28:28;;;;;;;8.13;6.43;;;;;;;10.51;71.92;96095.97;5071157;28;20718;-85
2021/11/08 07:30:54;;;;;;;7.53;5.13;;;;;;;10.51;71.64;96094.19;5071215;28;20225;-83
2021/11/08 07:33:21;;;;;;;8.17;5.43;;;;;;;10.55;71.88;96100.63;5070870;28;20201;-83
2021/11/08 07:35:47;;;;;;;7.03;5.17;;;;;;;10.60;71.90;96102.69;5070439;28;20197;-84
2021/11/08 07:38:14;;;;;;;7.30;5.57;;;;;;;10.64;71.38;96102.22;5070920;28;20213;-85
2021/11/08 07:40:41;;;;;;;7.23;5.23;;;;;;;10.61;71.50;96097.38;5071414;28;20583;-83
2021/11/08 07:43:08;;;;;;;9.40;5.70;;;;;;;10.70;71.41;96101.56;5070480;28;20212;-85
2021/11/08 07:45:35;;;;;;;8.20;5.60;;;;;;;10.73;70.33;96090.94;5070512;28;20213;-85
2021/11/08 07:48:03;;;;;;;8.73;5.20;;;;;;;10.87;70.17;96101.50;5070898;28;20251;-85
2021/11/08 07:50:30;;;;;;;9.30;4.97;;;;;;;11.07;69.50;96103.53;5070064;28;20228;-82
2021/11/08 07:52:56;;;;;;;8.70;5.67;;;;;;;11.21;69.42;96103.81;5069882;28;20699;-86
2021/11/08 07:55:23;;;;;;;7.40;4.67;;;;;;;11.40;69.50;96101.63;5070065;28;20208;-85
2021/11/08 07:57:49;;;;;;;10.20;5.20;;;;;;;11.53;68.28;96103.69;5068529;28;20193;-85
2021/11/08 08:00:17;;;;;;;9.83;5.07;;;;;;;11.79;67.72;96097.41;5070529;28;20204;-84
2021/11/08 08:02:44;;;;;;;6.67;4.40;;;;;;;11.81;66.66;96105.78;5058250;28;20201;-85
2021/11/08 08:05:11;;;;;;;5.57;4.30;;;;;;;11.69;66.92;96102.78;5055959;28;20205;-82
2021/11/08 08:07:40;;;;;;;8.80;5.10;;;;;;;11.88;66.38;96101.56;5056377;28;20205;-82
2021/11/08 08:10:07;;;;;;;6.40;4.77;;;;;;;12.05;65.73;96105.63;5055959;28;20221;-84
2021/11/08 08:12:33;;;;;;;8.50;4.30;;;;;;;12.19;65.52;96104.06;5056687;28;20255;-84
2021/11/08 08:15:00;;;;;;;8.07;4.10;;;;;;;12.28;64.43;96098.69;5057115;28;20205;-85
2021/11/08 08:17:28;;;;;;;8.27;4.00;;;;;;;12.28;63.68;96109.00;5056236;28;20213;-84
2021/11/08 08:19:54;;;;;;;6.87;3.73;;;;;;;12.38;63.25;96104.38;5056130;28;20218;-84
2021/11/08 08:22:22;;;;;;;9.10;4.37;;;;;;;12.49;62.94;96110.13;5055836;28;20202;-85
2021/11/08 08:24:48;;;;;;;8.10;3.50;;;;;;;12.61;62.70;96099.19;5075949;28;20228;-85
2021/11/08 08:27:15;;;;;;;6.17;3.30;;;;;;;12.39;60.99;96097.44;5075791;28;20206;-86
2021/11/08 08:29:41;;;;;;;10.20;3.50;;;;;;;12.09;61.91;96101.72;5055917;28;20732;-82
2021/11/08 08:32:08;;;;;;;7.97;3.40;;;;;;;12.08;62.20;96106.09;5055634;28;20225;-86
2021/11/08 08:34:36;;;;;;;5.60;2.80;;;;;;;12.03;62.50;96105.81;5055874;28;20205;-84
2021/11/08 08:37:02;;;;;;;8.37;3.33;;;;;;;11.69;62.21;96100.19;5055891;28;20206;-85
2021/11/08 08:39:29;;;;;;;6.30;3.40;;;;;;;11.37;63.15;96098.56;5055438;28;20229;-84
2021/11/08 08:41:56;;;;;;;9.73;3.17;;;;;;;10.96;61.82;96106.50;5056166;28;20194;-85
2021/11/08 08:44:22;;;;;;;6.20;3.23;;;;;;;10.86;64.08;96102.47;5055700;28;20263;-82
2021/11/08 08:46:49;;;;;;;8.33;3.30;;;;;;;10.77;65.24;96108.63;5055856;28;20209;-84
2021/11/08 08:49:18;;;;;;;7.70;3.73;;;;;;;10.71;64.69;96117.81;5055892;28;20225;-82
2021/11/08 08:51:47;;;;;;;47.07;33.73;;;;;;;10.62;65.45;96117.00;5054010;28;20283;-86
2021/11/08 08:54:13;;;;;;;11.17;7.57;;;;;;;10.51;65.55;96112.22;5055513;28;20561;-85
2021/11/08 08:56:40;;;;;;;9.43;5.00;;;;;;;10.45;66.20;96119.78;5055866;28;20221;-84
2021/11/08 08:59:07;;;;;;;11.97;3.80;;;;;;;10.40;65.51;96115.09;5055240;28;20218;-85
2021/11/08 09:01:34;;;;;;;8.67;3.53;;;;;;;10.36;65.35;96126.72;5055048;28;20201;-82
2021/11/08 09:04:01;;;;;;;11.03;3.63;;;;;;;10.25;66.36;96127.00;5055962;28;20210;-83
2021/11/08 09:06:28;;;;;;;9.63;3.80;;;;;;;10.05;66.83;96134.22;5057516;28;20205;-84
2021/11/08 09:08:56;;;;;;;7.10;3.30;;;;;;;10.19;66.76;96132.81;5056329;28;20271;-82
2021/11/08 09:11:24;;;;;;;7.70;3.37;;;;;;;10.12;64.28;96127.47;5054554;28;20221;-86
2021/11/08 09:13:51;;;;;;;8.73;3.60;;;;;;;10.38;64.49;96127.34;5054289;28;20208;-82
2021/11/08 09:16:18;;;;;;;7.93;3.30;;;;;;;10.77;63.67;96129.25;5055274;28;20680;-83
2021/11/08 09:18:48;;;;;;;9.07;3.60;;;;;;;11.13;63.40;96125.28;5055243;28;20317;-86
2021/11/08 09:21:16;;;;;;;10.03;3.67;;;;;;;11.59;60.92;96122.81;5055102;28;20221;-84
2021/11/08 09:23:43;;;;;;;8.53;3.27;;;;;;;11.92;59.91;96132.03;5054318;28;20237;-84
2021/11/08 09:26:11;;;;;;;9.13;2.80;;;;;;;12.23;58.76;96126.78;5055181;28;20201;-83
2021/11/08 09:28:38;;;;;;;7.63;3.00;;;;;;;12.12;58.66;96121.25;5055534;28;20252;-83
2021/11/08 09:31:05;;;;;;;6.73;3.03;;;;;;;11.91;57.94;96130.41;5054968;28;20643;-84
2021/11/08 09:33:31;;;;;;;8.30;3.07;;;;;;;12.15;58.49;96126.84;5055506;28;20205;-84
2021/11/08 09:36:02;;;;;;;10.47;2.93;;;;;;;12.25;57.60;96127.44;5054398;28;20206;-82
2021/11/08 09:38:29;;;;;;;10.97;3.00;;;;;;;12.51;56.98;96132.19;5055215;28;20233;-83
2021/11/08 09:40:56;;;;;;;9.13;3.33;;;;;;;12.62;57.67;96129.22;5054648;28;20197;-84
2021/11/08 09:43:25;;;;;;;10.93;3.57;;;;;;;12.51;56.28;96121.09;5054921;28;20596;-84
2021/11/08 09:45:53;;;;;;;24.50;19.27;;;;;;;12.70;56.94;96123.19;5054997;28;20726;-86
2021/11/08 09:48:21;;;;;;;26.37;14.53;;;;;;;13.06;57.14;96124.09;5054312;28;20229;-84
2021/11/08 09:50:49;;;;;;;9.47;3.40;;;;;;;13.25;54.25;96124.56;5054179;28;20225;-84
2021/11/08 09:53:17;;;;;;;8.17;3.80;;;;;;;13.42;55.20;96126.75;5054566;28;20209;-83
2021/11/08 09:55:46;;;;;;;8.73;3.00;;;;;;;13.32;54.73;96125.44;5054394;28;20204;-82
2021/11/08 09:58:14;;;;;;;7.87;3.10;;;;;;;12.92;54.17;96121.47;5052219;28;20233;-83
2021/11/08 10:00:50;;;;;;;8.27;2.80;;;;;;;12.35;54.40;96127.97;5052964;28;20198;-81
2021/11/08 10:03:20;;;;;;;7.10;3.30;;;;;;;12.14;57.00;96135.56;5054227;28;20207;-83
2021/11/08 10:05:49;;;;;;;5.40;2.20;;;;;;;11.99;57.11;96129.53;5052617;28;20204;-84
2021/11/08 10:08:19;;;;;;;7.30;2.77;;;;;;;11.78;56.80;96132.72;5052898;28;20217;-84
2021/11/08 10:10:45;;;;;;;6.10;2.70;;;;;;;11.69;58.45;96131.97;5053485;28;20256;-83
2021/11/08 10:13:14;;;;;;;6.83;2.70;;;;;;;11.63;58.74;96136.97;5053090;28;20201;-84
2021/11/08 10:15:43;;;;;;;8.17;3.13;;;;;;;11.52;59.20;96139.94;5052810;28;20204;-82
2021/11/08 10:18:11;;;;;;;9.03;3.10;;;;;;;11.46;60.05;96135.47;5049548;28;20623;-84
2021/11/08 10:20:41;;;;;;;7.07;3.33;;;;;;;11.17;60.87;96139.41;5052907;28;20212;-82
2021/11/08 10:23:09;;;;;;;14.87;3.67;;;;;;;11.17;61.40;96133.47;5056516;28;20254;-84
2021/11/08 10:25:38;;;;;;;29.50;19.30;;;;;;;11.10;61.18;96137.69;5072067;28;20204;-82
2021/11/08 10:28:09;;;;;;;23.17;15.87;;;;;;;11.10;61.25;96135.13;5071739;28;20745;-84
2021/11/08 10:30:36;;;;;;;8.77;3.63;;;;;;;10.91;61.52;96131.94;5071131;28;20208;-84
2021/11/08 10:33:09;;;;;;;12.73;2.90;;;;;;;10.77;61.21;96142.13;5072172;28;20207;-83
2021/11/08 10:35:42;;;;;;;8.27;3.07;;;;;;;10.67;61.61;96142.28;5071667;28;20714;-84
2021/11/08 10:38:11;;;;;;;9.47;3.53;;;;;;;10.46;62.29;96150.50;5071689;28;20217;-84
2021/11/08 10:40:44;;;;;;;7.40;3.33;;;;;;;10.47;62.06;96153.88;5072281;28;20204;-83
2021/11/08 10:43:11;;;;;;;7.77;2.83;;;;;;;10.43;62.70;96155.16;5071448;28;20228;-84
2021/11/08 10:45:47;;;;;;;10.20;3.23;;;;;;;10.47;62.31;96148.72;5071399;28;20220;-84
2021/11/08 10:48:19;;;;;;;10.33;3.03;;;;;;;10.41;61.92;96144.22;5072009;28;20220;-83
2021/11/08 10:50:48;;;;;;;41.10;29.43;;;;;;;10.34;62.52;96142.31;5071956;28;20651;-84
2021/11/08 10:53:15;;;;;;;20.50;15.50;;;;;;;10.35;62.33;96143.94;5072236;28;20208;-83
2021/11/08 10:55:41;;;;;;;17.00;11.13;;;;;;;10.44;62.63;96142.13;5071625;28;20201;-84
2021/11/08 10:58:09;;;;;;;9.60;4.90;;;;;;;10.60;62.61;96136.97;5071534;28;20228;-82
2021/11/08 11:00:47;;;;;;;11.47;4.30;;;;;;;10.93;62.33;96132.59;5069184;28;20196;-82
2021/11/08 11:03:14;;;;;;;9.10;3.40;;;;;;;11.39;61.30;96136.13;5069268;28;20269;-81
2021/11/08 11:05:42;;;;;;;8.47;3.60;;;;;;;11.84;60.84;96134.63;5072642;28;20204;-83
2021/11/08 11:08:14;;;;;;;8.40;3.33;;;;;;;11.92;59.42;96137.19;5070143;28;20244;-85
2021/11/08 11:10:51;;;;;;;6.93;3.13;;;;;;;11.83;59.04;96130.44;5071093;28;20266;-84
2021/11/08 11:13:22;;;;;;;9.60;3.43;;;;;;;11.60;58.83;96127.00;5071715;28;20207;-82
2021/11/08 11:15:49;;;;;;;7.73;3.80;;;;;;;11.37;59.38;96130.31;5072467;28;20211;-84
2021/11/08 11:18:17;;;;;;;8.60;3.40;;;;;;;11.18;58.83;96122.19;5069420;28;20228;-83
2021/11/08 11:20:46;;;;;;;7.77;3.60;;;;;;;10.93;60.17;96130.00;5071519;28;20283;-83
2021/11/08 11:23:20;;;;;;;11.80;3.23;;;;;;;10.96;61.23;96126.31;5065238;28;20233;-84
2021/11/08 11:25:53;;;;;;;8.60;3.13;;;;;;;11.08;61.59;96120.63;5052749;28;20197;-83
2021/11/08 11:28:25;;;;;;;7.73;3.20;;;;;;;11.23;66.32;96113.00;5051077;28;20275;-83
2021/11/08 11:30:52;;;;;;;9.07;3.33;;;;;;;11.59;63.14;96109.91;5052564;28;20224;-81
2021/11/08 11:33:21;;;;;;;7.67;3.40;;;;;;;11.53;59.33;96113.19;5052604;28;20201;-83
2021/11/08 11:35:51;;;;;;;7.93;3.17;;;;;;;11.82;62.51;96115.94;5051633;28;20202;-82
2021/11/08 11:38:22;;;;;;;6.83;3.40;;;;;;;12.13;57.82;96104.75;5054557;28;20226;-84
2021/11/08 11:40:55;;;;;;;6.40;3.57;;;;;;;12.01;57.91;96104.38;5056037;28;20295;-83
2021/11/08 11:43:28;;;;;;;8.80;3.40;;;;;;;12.31;58.50;96105.28;5056473;28;20209;-84
2021/11/08 11:45:56;;;;;;;9.10;3.13;;;;;;;12.32;58.15;96106.84;5055137;28;20202;-80
2021/11/08 11:48:26;;;;;;;9.13;3.27;;;;;;;12.27;56.38;96104.81;5055381;28;20237;-82
2021/11/08 11:50:53;;;;;;;8.03;3.57;;;;;;;12.11;57.15;96115.28;5055866;28;20227;-81
2021/11/08 11:53:23;;;;;;;8.80;3.50;;;;;;;12.17;56.24;96104.25;5055395;28;20267;-83
2021/11/08 11:55:49;;;;;;;6.43;3.43;;;;;;;12.15;56.60;96105.38;5054540;28;20212;-84
2021/11/08 11:58:16;;;;;;;8.47;3.77;;;;;;;12.06;56.63;96108.03;5053572;28;20225;-84
2021/11/08 12:00:44;;;;;;;6.60;3.70;;;;;;;12.08;56.30;96108.69;5055547;28;20205;-82
2021/11/08 12:03:11;;;;;;;30.80;20.50;;;;;;;12.27;56.04;96109.19;5054083;28;20201;-82
2021/11/08 12:05:39;;;;;;;15.40;8.80;;;;;;;12.66;55.44;96101.25;5054371;28;20201;-83
2021/11/08 12:08:09;;;;;;;7.90;3.50;;;;;;;12.75;53.81;96095.81;5054958;28;20716;-81
2021/11/08 12:10:45;;;;;;;6.97;3.03;;;;;;;12.85;53.41;96092.16;5054015;28;20227;-83
2021/11/08 12:13:17;;;;;;;8.90;3.23;;;;;;;13.06;53.07;96087.09;5054175;28;20221;-82
2021/11/08 12:15:44;;;;;;;7.77;3.13;;;;;;;12.95;51.42;96083.16;5055443;28;20208;-84
2021/11/08 12:18:13;;;;;;;6.63;3.77;;;;;;;12.96;51.15;96079.59;5054333;28;20275;-82
2021/11/08 12:20:45;;;;;;;7.30;3.17;;;;;;;13.06;52.25;96072.38;5052327;28;20205;-83
2021/11/08 12:23:13;;;;;;;8.13;3.27;;;;;;;13.32;51.84;96087.44;5053658;28;20229;-83
2021/11/08 12:25:42;;;;;;;7.70;3.40;;;;;;;13.11;49.88;96087.34;5054891;28;20205;-83
2021/11/08 12:28:12;;;;;;;8.90;3.23;;;;;;;12.80;50.48;96082.34;5055219;28;20316;-81
2021/11/08 12:30:42;;;;;;;9.97;3.03;;;;;;;12.97;50.15;96082.97;5055921;28;20296;-85
2021/11/08 12:33:21;;;;;;;22.40;15.30;;;;;;;13.01;49.51;96079.06;5055505;28;20284;-81
2021/11/08 12:35:48;;;;;;;12.60;7.50;;;;;;;13.47;49.48;96075.25;5055889;28;20492;-84
2021/11/08 12:38:19;;;;;;;9.03;3.87;;;;;;;13.75;48.86;96070.19;5056174;28;20245;-81
2021/11/08 12:40:47;;;;;;;5.70;2.70;;;;;;;13.92;48.63;96065.56;5055674;28;20598;-84
2021/11/08 12:43:24;;;;;;;5.63;2.93;;;;;;;14.26;47.46;96070.06;5055974;28;20696;-83
2021/11/08 12:45:51;;;;;;;8.70;2.93;;;;;;;14.10;46.68;96062.53;5055168;28;20229;-84
2021/11/08 12:48:17;;;;;;;6.70;2.40;;;;;;;14.22;47.44;96060.28;5054948;28;20232;-82
2021/11/08 12:50:47;;;;;;;6.00;2.90;;;;;;;14.44;46.35;96056.66;5055949;28;20219;-83
2021/11/08 12:53:21;;;;;;;7.00;2.57;;;;;;;14.66;45.61;96053.03;5055679;28;20736;-82
2021/11/08 12:55:48;;;;;;;6.03;2.90;;;;;;;14.35;46.23;96050.00;5054266;28;20208;-81
2021/11/08 12:58:15;;;;;;;6.57;2.77;;;;;;;14.60;47.15;96045.22;5054544;28;20229;-81
2021/11/08 13:00:49;;;;;;;6.83;3.13;;;;;;;14.70;47.61;96051.66;5054963;28;20208;-82
2021/11/08 13:03:17;;;;;;;6.63;2.67;;;;;;;14.50;47.36;96041.16;5054958;28;20201;-82
2021/11/08 13:05:46;;;;;;;5.13;2.60;;;;;;;13.99;48.44;96037.97;5055399;28;20263;-84